RJFR/KKJ METAR and TAF weather

Enter ICAO airport designator
Station Type Date Time Source
RJFR METAR 2022/12/05 13:00 UTC NOAA

RJFR 051300Z 32008KT 9999 FEW025 SCT035 BKN050 10/06 Q1021


Station Type Date Time Source
RJFR Decoded METAR 2022/12/05 13:00 UTC NOAA

Kitakyushu Airport, Japan (RJFR) 33-50N 130-57E 6M
Dec 05, 2022 - 08:00 AM EST / 2022.12.05 1300 UTC
Wind: from the NW (320 degrees) at 9 MPH (8 KT):0
Visibility: greater than 7 mile(s):0
Sky conditions: mostly cloudy
Temperature: 50 F (10 C)
Dew Point: 42 F (6 C)
Relative Humidity: 76%
Pressure (altimeter): 30.15 in. Hg (1021 hPa)
ob: RJFR 051300Z 32008KT 9999 FEW025 SCT035 BKN050 10/06 Q1021
cycle: 13

Station Type Date Time Source
RJFR TAF 2022/12/05 12:30 UTC NOAA

TAF RJFR 051105Z 0512/0618 34012KT 9999 FEW030 BKN045
BECMG 0606/0609 28008KT

Example: see airport list